San Diego, California
Current Conditions -  °F | °C
As of 9:51 AM on Thursday 30 Oct 2014 (Local Time) from KSAN Reporting Station
Broken Clouds Broken Clouds  
Wind Chill: 69°   Ceiling: 24000
Heat Index: 69°   Visibility: 8mi
Dew Point: 54°   Wind: 0mph
Humidity: 58%   Direction: NA
Pressure: 30.01"   Gusts: NA
Location:  32.72°N, 117.16°W
Report Text: KSAN 301651Z 00000KT 8SM BKN240 21/12 A3001 RMK AO2 SLP162 T02060122
Loading
Personal Weather Stations






























Interactive Weather Map New forecast layout! Learn more

10-Day Weather Forecast

Advertisements
Track Severe Weather on mobile